createdAt,value
2019-06-20T00:01:40.044Z,90.48
2019-06-20T00:04:09.448Z,90.55
2019-06-20T00:06:38.934Z,90.89
2019-06-20T00:09:09.313Z,91.81
2019-06-20T00:11:39.033Z,93.24
2019-06-20T00:14:08.440Z,92.42
2019-06-20T00:16:37.871Z,91.84
2019-06-20T00:19:07.304Z,90.95
2019-06-20T00:21:36.727Z,91.71
2019-06-20T00:24:06.228Z,90.83
2019-06-20T00:26:35.711Z,91.48
2019-06-20T00:29:05.334Z,92.31
2019-06-20T00:31:34.783Z,92.21
2019-06-20T00:34:04.183Z,92.82
2019-06-20T00:36:34.539Z,93.85
2019-06-20T00:39:04.571Z,94.41
2019-06-20T00:41:34.023Z,94.50
2019-06-20T00:44:03.537Z,93.51
2019-06-20T00:46:32.899Z,93.49
2019-06-20T00:49:02.349Z,91.68
2019-06-20T00:51:31.793Z,91.39
2019-06-20T00:54:01.171Z,90.63
2019-06-20T00:56:30.589Z,88.69
2019-06-20T00:58:59.955Z,87.41
2019-06-20T01:01:29.350Z,87.28
2019-06-20T01:03:58.778Z,88.01
2019-06-20T01:06:28.131Z,87.94
2019-06-20T01:08:57.893Z,87.25
2019-06-20T01:11:27.237Z,86.86
2019-06-20T01:13:56.662Z,86.75
2019-06-20T01:16:26.134Z,88.04
2019-06-20T01:18:55.572Z,87.42
2019-06-20T01:21:25.003Z,88.62
2019-06-20T01:23:54.452Z,88.55
2019-06-20T01:26:23.890Z,86.90
2019-06-20T01:28:53.263Z,86.42
2019-06-20T01:31:22.690Z,88.28
2019-06-20T01:33:52.370Z,88.76
2019-06-20T01:36:21.818Z,88.32
2019-06-20T01:38:52.098Z,87.85
2019-06-20T01:41:21.577Z,86.88
2019-06-20T01:43:51.293Z,85.85
2019-06-20T01:46:20.790Z,86.43
2019-06-20T01:48:50.282Z,88.09
2019-06-20T01:51:19.685Z,87.55
2019-06-20T01:53:49.094Z,88.27
2019-06-20T01:56:18.517Z,87.78
2019-06-20T01:58:47.926Z,86.41
2019-06-20T02:01:17.384Z,87.10
2019-06-20T02:03:46.767Z,86.52
2019-06-20T02:06:16.289Z,86.68
2019-06-20T02:08:45.693Z,85.16
2019-06-20T02:11:15.189Z,86.82
2019-06-20T02:13:44.964Z,89.42
2019-06-20T02:16:14.628Z,89.99
2019-06-20T02:18:44.015Z,90.32
2019-06-20T02:21:13.382Z,89.71
2019-06-20T02:23:42.746Z,89.22
2019-06-20T02:26:12.556Z,89.11
2019-06-20T02:28:41.949Z,90.60
2019-06-20T02:31:11.363Z,91.42
2019-06-20T02:33:40.777Z,89.89
2019-06-20T02:36:11.039Z,88.92
2019-06-20T02:38:40.424Z,89.50
2019-06-20T02:41:09.879Z,90.83
2019-06-20T02:43:39.351Z,92.33
2019-06-20T02:46:08.849Z,92.52
2019-06-20T02:48:38.375Z,91.70
2019-06-20T02:51:07.859Z,91.42
2019-06-20T02:53:37.277Z,92.78
2019-06-20T02:56:06.726Z,94.10
2019-06-20T02:58:36.274Z,95.52
2019-06-20T03:01:06.062Z,94.91
2019-06-20T03:03:35.529Z,94.46
2019-06-20T03:06:05.312Z,94.72
2019-06-20T03:08:34.804Z,95.79
2019-06-20T03:11:04.346Z,97.20
2019-06-20T03:13:33.710Z,97.37
2019-06-20T03:16:03.101Z,96.79
2019-06-20T03:18:32.493Z,96.54
2019-06-20T03:21:01.925Z,96.69
2019-06-20T03:23:31.763Z,97.08
2019-06-20T03:26:01.217Z,98.00
2019-06-20T03:28:30.545Z,99.52
2019-06-20T03:30:59.910Z,100.00
2019-06-20T03:33:29.332Z,100.00
2019-06-20T03:35:59.549Z,100.00
2019-06-20T03:38:28.954Z,100.00
2019-06-20T03:40:58.447Z,100.00
2019-06-20T03:43:28.144Z,100.00
2019-06-20T03:45:58.400Z,100.00
2019-06-20T03:48:27.925Z,100.00
2019-06-20T03:50:57.717Z,100.00
2019-06-20T03:53:27.141Z,100.00
2019-06-20T03:55:56.549Z,100.00
2019-06-20T03:58:25.903Z,100.00
2019-06-20T04:00:55.307Z,100.00
2019-06-20T04:03:24.763Z,100.00
2019-06-20T04:05:54.179Z,100.00
2019-06-20T04:08:23.536Z,100.00
2019-06-20T04:10:54.041Z,100.00
2019-06-20T04:13:23.422Z,99.75
2019-06-20T04:15:52.870Z,99.63
2019-06-20T04:18:23.483Z,99.52
2019-06-20T04:20:52.879Z,98.48
2019-06-20T04:23:22.246Z,97.89
2019-06-20T04:25:51.738Z,98.17
2019-06-20T04:28:21.143Z,98.43
2019-06-20T04:30:50.497Z,99.47
2019-06-20T04:33:19.915Z,99.77
2019-06-20T04:35:50.485Z,99.86
2019-06-20T04:38:19.837Z,99.32
2019-06-20T04:40:49.595Z,97.97
2019-06-20T04:43:20.167Z,97.99
2019-06-20T04:46:14.737Z,97.31
2019-06-20T04:48:44.435Z,96.11
2019-06-20T04:51:13.843Z,96.82
2019-06-20T04:53:44.058Z,96.63
2019-06-20T04:56:13.419Z,96.48
2019-06-20T04:58:42.870Z,97.05
2019-06-20T05:01:12.755Z,97.47
2019-06-20T05:03:42.334Z,97.03
2019-06-20T05:06:11.761Z,96.66
2019-06-20T05:08:41.280Z,94.06
2019-06-20T05:11:11.516Z,90.32
2019-06-20T05:13:40.985Z,88.93
2019-06-20T05:16:10.487Z,87.75
2019-06-20T05:18:39.937Z,88.21
2019-06-20T05:21:09.396Z,86.21
2019-06-20T05:23:38.845Z,83.22
2019-06-20T05:26:08.240Z,82.02
2019-06-20T05:28:37.839Z,80.48
2019-06-20T05:31:07.359Z,78.95
2019-06-20T05:33:36.795Z,78.14
2019-06-20T05:36:07.239Z,76.56
2019-06-20T05:38:37.464Z,76.42
2019-06-20T05:41:06.935Z,75.01
2019-06-20T05:43:36.746Z,72.03
2019-06-20T05:46:10.802Z,70.82
2019-06-20T05:48:37.414Z,69.49
2019-06-20T05:51:07.777Z,68.33
2019-06-20T05:53:37.173Z,66.09
2019-06-20T05:56:08.718Z,66.09
2019-06-20T05:58:38.273Z,63.43
2019-06-20T06:01:07.802Z,62.27
2019-06-20T06:03:37.218Z,62.90
2019-06-20T06:06:06.609Z,65.05
2019-06-20T06:08:36.110Z,64.72
2019-06-20T06:11:06.812Z,64.62
2019-06-20T06:13:36.682Z,63.53
2019-06-20T06:16:06.172Z,62.06
2019-06-20T06:18:35.588Z,61.17
2019-06-20T06:21:05.238Z,59.81
2019-06-20T06:23:34.656Z,59.75
2019-06-20T06:26:04.137Z,59.74
2019-06-20T06:28:33.569Z,59.41
2019-06-20T06:31:02.983Z,60.25
2019-06-20T06:33:32.444Z,60.21
2019-06-20T06:36:01.887Z,61.99
2019-06-20T06:38:31.505Z,60.49
2019-06-20T06:41:00.905Z,58.27
2019-06-20T06:43:30.343Z,58.10
2019-06-20T06:45:59.797Z,57.71
2019-06-20T06:48:29.170Z,58.46
2019-06-20T06:50:58.595Z,59.39
2019-06-20T06:53:27.968Z,60.23
2019-06-20T06:55:57.364Z,60.25
2019-06-20T06:58:26.752Z,57.14
2019-06-20T07:00:56.598Z,56.49
2019-06-20T07:03:26.003Z,56.82
2019-06-20T07:05:55.458Z,55.52
2019-06-20T07:08:24.905Z,55.59
2019-06-20T07:10:54.280Z,54.73
2019-06-20T07:13:23.817Z,54.87
2019-06-20T07:15:53.390Z,55.24
2019-06-20T07:18:22.938Z,53.17
2019-06-20T07:20:52.376Z,53.72
2019-06-20T07:23:22.034Z,54.00
2019-06-20T07:25:51.444Z,53.48
2019-06-20T07:28:21.023Z,51.18
2019-06-20T07:30:50.473Z,50.29
2019-06-20T07:33:19.831Z,50.56
2019-06-20T07:35:49.443Z,50.93
2019-06-20T07:38:18.931Z,50.33
2019-06-20T07:40:48.276Z,49.54
2019-06-20T07:43:17.708Z,48.72
2019-06-20T07:46:01.396Z,50.28
2019-06-20T07:48:18.197Z,49.22
2019-06-20T07:50:47.682Z,50.29
2019-06-20T07:53:17.098Z,49.89
2019-06-20T07:55:46.527Z,49.09
2019-06-20T07:58:15.920Z,47.95
2019-06-20T08:00:45.404Z,47.56
2019-06-20T08:03:14.780Z,47.08
2019-06-20T08:05:44.185Z,43.66
2019-06-20T08:08:13.592Z,42.93
2019-06-20T08:10:42.970Z,43.37
2019-06-20T08:13:12.444Z,42.27
2019-06-20T08:15:41.810Z,42.75
2019-06-20T08:18:11.218Z,42.10
2019-06-20T08:20:40.950Z,42.09
2019-06-20T08:23:10.354Z,42.81
2019-06-20T08:25:39.748Z,43.61
2019-06-20T08:28:09.163Z,43.88
2019-06-20T08:30:38.721Z,43.96
2019-06-20T08:33:11.908Z,41.22
2019-06-20T08:35:40.422Z,40.19
2019-06-20T08:38:09.806Z,41.53
2019-06-20T08:40:40.758Z,41.74
2019-06-20T08:43:10.175Z,41.34
2019-06-20T08:45:40.565Z,40.22
2019-06-20T08:48:10.282Z,40.16
2019-06-20T08:50:39.661Z,39.60
2019-06-20T08:53:09.216Z,38.21
2019-06-20T08:55:38.578Z,39.62
2019-06-20T08:58:07.948Z,39.34
2019-06-20T09:00:39.170Z,39.24
2019-06-20T09:03:08.735Z,37.43
2019-06-20T09:05:38.215Z,35.85
2019-06-20T09:08:11.287Z,35.48
2019-06-20T09:10:40.273Z,35.25
2019-06-20T09:13:11.185Z,36.99
2019-06-20T09:15:40.592Z,35.34
2019-06-20T09:18:09.939Z,36.18
2019-06-20T09:20:40.079Z,35.33
2019-06-20T09:23:09.456Z,35.62
2019-06-20T09:25:39.420Z,35.26
2019-06-20T09:28:09.610Z,36.24
2019-06-20T09:30:39.284Z,35.25
2019-06-20T09:33:09.441Z,35.12
2019-06-20T09:35:38.781Z,36.11
2019-06-20T09:38:08.472Z,36.17
2019-06-20T09:40:37.829Z,35.61
2019-06-20T09:43:07.515Z,36.10
2019-06-20T09:45:37.331Z,36.13
2019-06-20T09:48:06.684Z,34.78
2019-06-20T09:50:36.050Z,34.25
2019-06-20T09:53:05.425Z,36.06
2019-06-20T09:55:34.891Z,34.54
2019-06-20T09:58:04.339Z,34.61
2019-06-20T10:00:34.112Z,33.72
2019-06-20T10:03:03.888Z,33.67
2019-06-20T10:05:33.241Z,35.06
2019-06-20T10:08:02.637Z,34.17
2019-06-20T10:10:33.593Z,33.19
2019-06-20T10:13:02.945Z,32.99
2019-06-20T10:15:33.631Z,31.79
2019-06-20T10:18:03.040Z,31.79
2019-06-20T10:20:32.719Z,32.41
2019-06-20T10:23:02.130Z,33.35
2019-06-20T10:25:31.557Z,32.97
2019-06-20T10:28:00.886Z,32.10
2019-06-20T10:30:30.372Z,32.98
2019-06-20T10:32:59.774Z,31.60
2019-06-20T10:35:29.152Z,31.78
2019-06-20T10:37:58.515Z,31.11
2019-06-20T10:40:28.058Z,30.18
2019-06-20T10:42:57.424Z,31.53
2019-06-20T10:45:27.208Z,31.59
2019-06-20T10:47:56.658Z,31.22
2019-06-20T10:50:26.423Z,30.94
2019-06-20T10:52:55.845Z,30.93
2019-06-20T10:55:25.996Z,30.29
2019-06-20T10:57:55.464Z,29.09
2019-06-20T11:00:31.360Z,29.39
2019-06-20T11:02:57.048Z,30.88
2019-06-20T11:05:26.641Z,32.04
2019-06-20T11:07:55.987Z,30.54
2019-06-20T11:10:25.673Z,29.12
2019-06-20T11:12:56.335Z,30.20
2019-06-20T11:15:26.219Z,29.90
2019-06-20T11:17:56.871Z,30.97
2019-06-20T11:20:26.672Z,30.93
2019-06-20T11:22:56.035Z,31.48
2019-06-20T11:25:25.386Z,30.64
2019-06-20T11:27:54.750Z,31.17
2019-06-20T11:30:25.994Z,30.07
2019-06-20T11:32:55.374Z,28.37
2019-06-20T11:35:24.750Z,27.62
2019-06-20T11:37:54.131Z,27.76
2019-06-20T11:40:23.711Z,26.81
2019-06-20T11:42:53.058Z,27.33
2019-06-20T11:45:22.642Z,28.61
2019-06-20T11:47:52.043Z,31.94
2019-06-20T11:50:22.917Z,34.21
2019-06-20T11:52:52.333Z,35.49
2019-06-20T11:55:22.006Z,36.29
2019-06-20T11:57:51.359Z,37.31
2019-06-20T12:00:21.800Z,37.46
2019-06-20T12:02:51.183Z,36.89
2019-06-20T12:05:20.794Z,38.38
2019-06-20T12:07:50.314Z,39.34
2019-06-20T12:10:20.273Z,39.09
2019-06-20T12:12:49.673Z,39.00
2019-06-20T12:15:19.540Z,42.08
2019-06-20T12:17:49.429Z,45.04
2019-06-20T12:20:20.659Z,47.17
2019-06-20T12:22:50.728Z,47.39
2019-06-20T12:25:20.727Z,44.94
2019-06-20T12:27:50.314Z,45.28
2019-06-20T12:30:21.827Z,46.71
2019-06-20T12:32:51.334Z,46.99
2019-06-20T12:35:20.776Z,47.35
2019-06-20T12:37:51.660Z,46.62
2019-06-20T12:40:22.963Z,46.79
2019-06-20T12:42:52.386Z,48.88
2019-06-20T12:45:22.009Z,51.21
2019-06-20T12:47:51.466Z,52.81
2019-06-20T12:50:20.921Z,54.11
2019-06-20T12:52:51.925Z,54.59
2019-06-20T12:55:21.322Z,55.53
2019-06-20T12:57:50.686Z,58.02
2019-06-20T13:00:20.872Z,59.03
2019-06-20T13:02:51.259Z,59.58
2019-06-20T13:05:21.265Z,59.87
2019-06-20T13:07:50.641Z,60.52
2019-06-20T13:10:20.165Z,63.25
2019-06-20T13:12:49.648Z,67.65
2019-06-20T13:15:19.352Z,69.29
2019-06-20T13:17:49.187Z,70.67
2019-06-20T13:20:19.854Z,72.67
2019-06-20T13:22:49.657Z,74.31
2019-06-20T13:25:19.218Z,75.78
2019-06-20T13:27:50.240Z,74.71
2019-06-20T13:30:20.301Z,74.99
2019-06-20T13:32:49.655Z,75.90
2019-06-20T13:35:19.416Z,76.72
2019-06-20T13:37:49.847Z,77.63
2019-06-20T13:40:19.712Z,80.08
2019-06-20T13:42:50.367Z,85.47
2019-06-20T13:45:22.477Z,87.72
2019-06-20T13:47:52.054Z,91.60
2019-06-20T13:50:23.431Z,95.87
2019-06-20T13:52:52.745Z,99.41
2019-06-20T13:55:22.085Z,100.00
2019-06-20T13:57:51.501Z,100.00
2019-06-20T14:00:21.867Z,100.00
2019-06-20T14:02:51.768Z,100.00
2019-06-20T14:05:21.341Z,100.00
2019-06-20T14:07:53.548Z,100.00
2019-06-20T14:10:21.890Z,100.00
2019-06-20T14:12:51.275Z,100.00
2019-06-20T14:15:20.730Z,100.00
2019-06-20T14:17:50.170Z,100.00
2019-06-20T14:20:20.203Z,100.00
2019-06-20T14:22:49.788Z,100.00
2019-06-20T14:25:19.718Z,100.00
2019-06-20T14:27:49.561Z,100.00
2019-06-20T14:30:20.730Z,100.00
2019-06-20T14:32:51.427Z,100.00
2019-06-20T14:35:21.014Z,100.00
2019-06-20T14:37:51.761Z,100.00
2019-06-20T14:40:21.594Z,100.00
2019-06-20T14:42:52.395Z,100.00
2019-06-20T14:45:21.918Z,100.00
2019-06-20T14:47:52.523Z,100.00
2019-06-20T14:50:23.023Z,100.00
2019-06-20T14:52:53.998Z,100.00
2019-06-20T14:55:23.716Z,100.00
2019-06-20T14:57:54.729Z,100.00
2019-06-20T15:00:25.053Z,100.00
2019-06-20T15:02:58.403Z,100.00
2019-06-20T15:05:25.748Z,100.00
2019-06-20T15:07:55.889Z,100.00
2019-06-20T15:10:25.518Z,100.00
2019-06-20T15:12:56.028Z,100.00
2019-06-20T15:15:25.648Z,100.00
2019-06-20T15:17:56.294Z,100.00
2019-06-20T15:20:26.106Z,100.00
2019-06-20T15:22:56.679Z,100.00
2019-06-20T15:25:26.263Z,100.00
2019-06-20T15:27:57.111Z,100.00
2019-06-20T15:30:26.813Z,100.00
2019-06-20T15:33:07.601Z,100.00
2019-06-20T15:35:27.564Z,100.00
2019-06-20T15:37:57.683Z,100.00
2019-06-20T15:40:27.316Z,100.00
2019-06-20T15:42:57.398Z,100.00
2019-06-20T15:45:27.901Z,100.00
2019-06-20T15:47:57.305Z,100.00
2019-06-20T15:50:26.716Z,100.00
2019-06-20T15:52:56.133Z,100.00
2019-06-20T15:55:25.596Z,100.00
2019-06-20T15:57:54.987Z,100.00
2019-06-20T16:00:27.615Z,100.00
2019-06-20T16:03:09.466Z,100.00
2019-06-20T16:05:28.431Z,100.00
2019-06-20T16:07:57.755Z,94.43
2019-06-20T16:10:27.399Z,98.04
2019-06-20T16:12:56.767Z,94.52
2019-06-20T16:15:26.287Z,84.63
2019-06-20T16:17:55.622Z,91.43
2019-06-20T16:20:25.021Z,92.13
2019-06-20T16:22:54.484Z,91.76
2019-06-20T16:25:24.445Z,84.25
2019-06-20T16:27:53.831Z,81.11
2019-06-20T16:30:23.496Z,85.84
2019-06-20T16:32:53.021Z,79.05
2019-06-20T16:35:22.652Z,78.37
2019-06-20T16:37:52.079Z,84.33
2019-06-20T16:40:37.321Z,82.84
2019-06-20T16:43:06.676Z,83.74
2019-06-20T16:45:36.073Z,80.27
2019-06-20T16:48:05.554Z,80.92
2019-06-20T16:50:34.889Z,83.29
2019-06-20T16:53:04.475Z,80.41
2019-06-20T16:55:33.840Z,80.29
2019-06-20T16:58:03.231Z,79.67
2019-06-20T17:00:33.159Z,80.57
2019-06-20T17:03:02.515Z,80.65
2019-06-20T17:05:32.037Z,79.45
2019-06-20T17:08:01.497Z,79.14
2019-06-20T17:10:30.904Z,80.29
2019-06-20T17:13:00.315Z,81.88
2019-06-20T17:15:29.717Z,80.70
2019-06-20T17:17:59.119Z,81.61
2019-06-20T17:20:29.744Z,81.96
2019-06-20T17:22:59.229Z,80.28
2019-06-20T17:25:28.656Z,81.38
2019-06-20T17:27:58.422Z,82.25
2019-06-20T17:30:28.590Z,81.45
2019-06-20T17:32:58.098Z,81.10
2019-06-20T17:35:27.679Z,81.69
2019-06-20T17:37:57.961Z,82.34
2019-06-20T17:40:28.586Z,82.80
2019-06-20T17:42:58.040Z,82.78
2019-06-20T17:45:29.271Z,83.57
2019-06-20T17:47:58.842Z,83.58
2019-06-20T17:50:28.523Z,82.92
2019-06-20T17:52:58.168Z,83.22
2019-06-20T17:55:27.596Z,83.43
2019-06-20T17:57:57.097Z,82.77
2019-06-20T18:00:28.498Z,82.82
2019-06-20T18:02:57.864Z,83.20
2019-06-20T18:05:27.438Z,83.36
2019-06-20T18:07:57.077Z,83.52
2019-06-20T18:10:26.734Z,83.57
2019-06-20T18:12:56.133Z,83.73
2019-06-20T18:15:25.648Z,84.13
2019-06-20T18:17:55.373Z,83.77
2019-06-20T18:20:25.313Z,84.17
2019-06-20T18:22:54.690Z,83.67
2019-06-20T18:25:25.594Z,83.51
2019-06-20T18:27:54.965Z,83.46
2019-06-20T18:30:33.480Z,83.17
2019-06-20T18:33:02.869Z,83.31
2019-06-20T18:35:32.155Z,83.03
2019-06-20T18:38:01.622Z,82.50
2019-06-20T18:40:31.219Z,82.85
2019-06-20T18:43:00.589Z,82.81
2019-06-20T18:45:29.928Z,82.99
2019-06-20T18:47:59.323Z,82.50
2019-06-20T18:50:28.650Z,82.77
2019-06-20T18:52:58.044Z,82.44
2019-06-20T18:55:27.405Z,81.99
2019-06-20T18:57:56.760Z,82.13
2019-06-20T19:00:34.661Z,82.13
2019-06-20T19:02:57.395Z,82.52
2019-06-20T19:05:26.763Z,82.92
2019-06-20T19:07:56.107Z,83.00
2019-06-20T19:10:25.669Z,82.96
2019-06-20T19:12:55.024Z,82.97
2019-06-20T19:15:24.881Z,83.28
2019-06-20T19:17:54.287Z,83.39
2019-06-20T19:20:23.994Z,83.45
2019-06-20T19:22:53.478Z,84.10
2019-06-20T19:25:22.800Z,84.48
2019-06-20T19:27:53.346Z,84.51
2019-06-20T19:30:28.457Z,84.48
2019-06-20T19:32:58.652Z,84.57
2019-06-20T19:35:28.043Z,84.53
2019-06-20T19:37:57.435Z,84.84
2019-06-20T19:40:29.780Z,85.42
2019-06-20T19:42:59.168Z,85.10
2019-06-20T19:45:28.502Z,85.14
2019-06-20T19:47:57.875Z,84.85
2019-06-20T19:50:27.233Z,85.19
2019-06-20T19:52:56.662Z,85.01
2019-06-20T19:55:26.035Z,85.49
2019-06-20T19:57:55.498Z,86.37
2019-06-20T20:00:26.646Z,86.01
2019-06-20T20:02:56.019Z,86.12
2019-06-20T20:05:25.570Z,86.24
2019-06-20T20:07:54.927Z,86.41
2019-06-20T20:10:33.131Z,85.87
2019-06-20T20:13:03.065Z,85.81
2019-06-20T20:15:32.418Z,86.79
2019-06-20T20:18:02.256Z,87.59
2019-06-20T20:20:31.619Z,88.02
2019-06-20T20:23:00.987Z,88.69
2019-06-20T20:25:30.695Z,88.56
2019-06-20T20:28:00.160Z,88.35
2019-06-20T20:30:29.499Z,88.30
2019-06-20T20:33:01.897Z,88.95
2019-06-20T20:35:35.529Z,89.58
2019-06-20T20:38:01.492Z,89.95
2019-06-20T20:40:31.050Z,89.97
2019-06-20T20:43:00.381Z,89.99
2019-06-20T20:45:29.752Z,90.35
2019-06-20T20:47:59.098Z,90.30
2019-06-20T20:50:28.453Z,90.91
2019-06-20T20:52:57.856Z,91.29
2019-06-20T20:55:27.272Z,90.73
2019-06-20T20:57:56.621Z,89.93
2019-06-20T21:00:27.610Z,89.31
2019-06-20T21:02:56.939Z,89.51
2019-06-20T21:05:26.296Z,89.92
2019-06-20T21:07:55.665Z,90.97
2019-06-20T21:10:25.119Z,91.74
2019-06-20T21:12:54.490Z,91.85
2019-06-20T21:15:25.220Z,91.44
2019-06-20T21:17:55.803Z,91.18
2019-06-20T21:20:25.282Z,91.56
2019-06-20T21:22:54.731Z,92.75
2019-06-20T21:25:24.110Z,93.42
2019-06-20T21:27:53.473Z,93.89
2019-06-20T21:30:22.937Z,93.21
2019-06-20T21:32:52.300Z,90.80
2019-06-20T21:35:21.691Z,90.33
2019-06-20T21:37:51.056Z,89.22
2019-06-20T21:40:21.905Z,88.84
2019-06-20T21:42:52.186Z,88.75
2019-06-20T21:45:22.396Z,89.38
2019-06-20T21:47:51.765Z,89.18
2019-06-20T21:50:21.871Z,89.66
2019-06-20T21:52:51.288Z,89.25
2019-06-20T21:55:20.699Z,88.67
2019-06-20T21:57:50.063Z,89.25
2019-06-20T22:00:28.339Z,88.80
2019-06-20T22:02:58.017Z,88.53
2019-06-20T22:05:27.357Z,88.22
2019-06-20T22:07:56.742Z,87.55
2019-06-20T22:10:26.096Z,87.82
2019-06-20T22:12:55.467Z,87.43
2019-06-20T22:15:24.938Z,86.87
2019-06-20T22:17:54.273Z,87.75
2019-06-20T22:20:23.724Z,88.79
2019-06-20T22:22:53.244Z,88.74
2019-06-20T22:25:22.907Z,88.77
2019-06-20T22:27:52.516Z,88.30
2019-06-20T22:30:41.517Z,88.47
2019-06-20T22:33:11.010Z,88.43
2019-06-20T22:35:40.519Z,88.08
2019-06-20T22:38:10.040Z,88.58
2019-06-20T22:40:39.895Z,88.75
2019-06-20T22:43:09.359Z,89.66
2019-06-20T22:45:38.877Z,91.19
2019-06-20T22:48:08.609Z,92.99
2019-06-20T22:50:38.024Z,94.32
2019-06-20T22:53:07.502Z,95.40
2019-06-20T22:55:36.876Z,96.35
2019-06-20T22:58:06.567Z,97.28
2019-06-20T23:00:36.732Z,96.07
2019-06-20T23:03:06.618Z,95.80
2019-06-20T23:05:36.484Z,96.19
2019-06-20T23:08:06.006Z,96.81
2019-06-20T23:10:35.344Z,97.57
2019-06-20T23:13:04.854Z,97.40
2019-06-20T23:15:34.260Z,96.91
2019-06-20T23:18:03.633Z,96.64
2019-06-20T23:20:33.061Z,97.34
2019-06-20T23:23:02.391Z,97.61
2019-06-20T23:25:32.380Z,96.89
2019-06-20T23:28:02.051Z,96.04
2019-06-20T23:30:31.404Z,94.50
2019-06-20T23:33:00.849Z,93.60
2019-06-20T23:35:30.251Z,92.70
2019-06-20T23:37:59.629Z,92.71
2019-06-20T23:40:29.042Z,92.98
2019-06-20T23:42:58.401Z,92.75
2019-06-20T23:45:27.801Z,91.97
2019-06-20T23:47:57.206Z,91.58
2019-06-20T23:50:26.646Z,91.19
2019-06-20T23:53:10.622Z,90.88
2019-06-20T23:55:39.973Z,90.45
2019-06-20T23:58:09.363Z,90.38
